createdAt,value
2017-10-07T00:03:07.456Z,1014.52
2017-10-07T00:13:07.400Z,1014.53
2017-10-07T00:23:07.430Z,1014.54
2017-10-07T00:33:07.421Z,1014.48
2017-10-07T00:43:07.510Z,1014.36
2017-10-07T00:53:07.471Z,1014.29
2017-10-07T01:03:07.527Z,1014.2
2017-10-07T01:13:07.459Z,1014.09
2017-10-07T01:23:07.444Z,1013.94
2017-10-07T01:33:07.470Z,1013.8
2017-10-07T01:43:07.581Z,1013.75
2017-10-07T01:53:07.516Z,1013.66
2017-10-07T02:03:07.586Z,1013.61
2017-10-07T02:13:07.558Z,1013.57
2017-10-07T02:23:07.504Z,1013.55
2017-10-07T02:33:07.521Z,1013.6
2017-10-07T02:43:07.532Z,1013.4
2017-10-07T02:53:07.535Z,1013.34
2017-10-07T03:03:07.564Z,1013.26
2017-10-07T03:13:07.556Z,1013.14
2017-10-07T03:23:07.563Z,1013.12
2017-10-07T03:33:07.563Z,1013.05
2017-10-07T03:43:07.614Z,1012.82
2017-10-07T03:53:07.587Z,1012.76
2017-10-07T04:03:07.589Z,1012.64
2017-10-07T04:13:07.607Z,1012.54
2017-10-07T04:23:07.605Z,1012.63
2017-10-07T04:33:07.735Z,1012.81
2017-10-07T04:43:07.623Z,1012.78
2017-10-07T04:53:07.631Z,1012.7
2017-10-07T05:03:07.647Z,1012.65
2017-10-07T05:13:07.658Z,1012.51
2017-10-07T05:23:07.733Z,1012.32
2017-10-07T05:33:07.679Z,1012.19
2017-10-07T05:43:07.687Z,1012.03
2017-10-07T05:53:07.669Z,1011.86
2017-10-07T06:03:07.659Z,1011.85
2017-10-07T06:13:07.754Z,1011.7
2017-10-07T06:23:07.704Z,1011.71
2017-10-07T06:33:07.650Z,1011.68
2017-10-07T06:43:07.650Z,1011.66
2017-10-07T06:53:07.644Z,1011.32
2017-10-07T07:03:07.664Z,1011.27
2017-10-07T07:13:07.703Z,1011.15
2017-10-07T07:23:07.658Z,1011
2017-10-07T07:33:07.664Z,1010.78
2017-10-07T07:43:07.653Z,1010.79
2017-10-07T07:53:07.646Z,1010.6
2017-10-07T08:03:07.646Z,1010.52
2017-10-07T08:13:07.662Z,1010.36
2017-10-07T08:23:07.753Z,1010.24
2017-10-07T08:33:07.705Z,1010.11
2017-10-07T08:43:07.643Z,1009.99
2017-10-07T08:53:07.643Z,1009.75
2017-10-07T09:03:07.676Z,1009.72
2017-10-07T09:13:07.658Z,1009.69
2017-10-07T09:23:07.722Z,1009.21
2017-10-07T09:33:07.667Z,1009.09
2017-10-07T09:43:07.674Z,1008.92
2017-10-07T09:53:07.701Z,1008.83
2017-10-07T10:03:07.679Z,1008.65
2017-10-07T10:13:07.726Z,1008.65
2017-10-07T10:23:07.661Z,1008.29
2017-10-07T10:33:07.652Z,1008.35
2017-10-07T10:43:07.649Z,1008.25
2017-10-07T10:53:07.658Z,1008.14
2017-10-07T11:03:07.728Z,1007.99
2017-10-07T11:13:07.678Z,1007.89
2017-10-07T11:23:07.750Z,1007.61
2017-10-07T11:33:07.634Z,1007.52
2017-10-07T11:43:07.657Z,1007.34
2017-10-07T11:53:07.669Z,1007.11
2017-10-07T12:03:07.693Z,1007.1
2017-10-07T12:13:07.766Z,1006.96
2017-10-07T12:23:08.306Z,1006.66
2017-10-07T12:33:07.675Z,1006.52
2017-10-07T12:43:07.660Z,1006.4
2017-10-07T12:53:07.684Z,1006.08
2017-10-07T13:03:07.675Z,1005.82
2017-10-07T13:13:07.686Z,1005.7
2017-10-07T13:23:07.849Z,1005.5
2017-10-07T13:33:07.703Z,1005.38
2017-10-07T13:43:07.718Z,1005.24
2017-10-07T13:53:07.722Z,1005.23
2017-10-07T14:03:07.738Z,1005.02
2017-10-07T14:13:07.814Z,1004.94
2017-10-07T14:23:07.751Z,1004.74
2017-10-07T14:33:07.748Z,1004.71
2017-10-07T14:43:07.770Z,1004.54
2017-10-07T14:53:07.784Z,1004.46
2017-10-07T15:03:07.798Z,1004.26
2017-10-07T15:13:07.802Z,1004.27
2017-10-07T15:23:07.808Z,1004.16
2017-10-07T15:33:07.821Z,1004.12
2017-10-07T15:43:07.837Z,1004.01
2017-10-07T15:53:07.845Z,1003.96
2017-10-07T16:03:07.909Z,1003.73
2017-10-07T16:13:07.842Z,1003.68
2017-10-07T16:23:07.862Z,1003.53
2017-10-07T16:33:07.871Z,1003.37
2017-10-07T16:43:07.880Z,1003.26
2017-10-07T16:53:07.880Z,1003.17
2017-10-07T17:03:07.910Z,1003.16
2017-10-07T17:13:07.899Z,1002.88
2017-10-07T17:23:07.931Z,1002.87
2017-10-07T17:33:07.939Z,1002.72
2017-10-07T17:43:08.010Z,1002.66
2017-10-07T17:53:07.940Z,1002.74
2017-10-07T18:03:07.965Z,1002.59
2017-10-07T18:13:07.979Z,1002.6
2017-10-07T18:23:07.965Z,1002.56
2017-10-07T18:33:07.984Z,1002.57
2017-10-07T18:43:07.992Z,1002.52
2017-10-07T18:53:08.005Z,1002.58
2017-10-07T19:03:08.054Z,1002.56
2017-10-07T19:13:08.047Z,1002.52
2017-10-07T19:23:08.788Z,1002.56
2017-10-07T19:33:08.223Z,1002.55
2017-10-07T19:43:08.466Z,1002.55
2017-10-07T19:53:08.147Z,1002.59
2017-10-07T20:03:08.354Z,1002.51
2017-10-07T20:13:08.069Z,1002.64
2017-10-07T20:23:08.200Z,1002.53
2017-10-07T20:33:08.360Z,1002.43
2017-10-07T20:43:08.118Z,1002.5
2017-10-07T20:53:08.136Z,1002.59
2017-10-07T21:03:08.165Z,1002.54
2017-10-07T21:13:08.194Z,1002.56
2017-10-07T21:23:08.121Z,1002.61
2017-10-07T21:33:08.696Z,1002.54
2017-10-07T21:43:08.326Z,1002.46
2017-10-07T21:53:15.707Z,1002.41
2017-10-07T22:03:11.863Z,1002.34
2017-10-07T22:13:08.332Z,1002.35
2017-10-07T22:23:08.223Z,1002.48
2017-10-07T22:33:08.242Z,1002.62
2017-10-07T22:43:08.201Z,1002.61
2017-10-07T22:53:08.233Z,1002.71
2017-10-07T23:03:08.294Z,1002.77
2017-10-07T23:13:08.234Z,1002.83
2017-10-07T23:23:08.303Z,1002.87
2017-10-07T23:33:08.373Z,1002.99
2017-10-07T23:43:08.257Z,1002.94
2017-10-07T23:53:08.877Z,1003.05
